createdAt,value
2022-08-20T00:02:31.884Z,71.78
2022-08-20T00:05:02.687Z,71.77
2022-08-20T00:07:39.677Z,71.68
2022-08-20T00:10:21.070Z,71.81
2022-08-20T00:12:56.973Z,72.15
2022-08-20T00:15:42.127Z,72.34
2022-08-20T00:18:12.377Z,72.84
2022-08-20T00:20:49.092Z,73.02
2022-08-20T00:23:19.740Z,73.05
2022-08-20T00:25:49.913Z,73.12
2022-08-20T00:28:21.816Z,73.26
2022-08-20T00:30:51.256Z,73.13
2022-08-20T00:33:24.774Z,73.15
2022-08-20T00:36:06.958Z,73.37
2022-08-20T00:38:41.229Z,73.32
2022-08-20T00:41:26.901Z,73.42
2022-08-20T00:44:01.746Z,73.63
2022-08-20T00:46:32.602Z,73.88
2022-08-20T00:49:04.317Z,73.71
2022-08-20T00:51:50.732Z,73.79
2022-08-20T00:54:39.450Z,73.79
2022-08-20T00:57:59.043Z,73.64
2022-08-20T01:00:32.962Z,73.64
2022-08-20T01:03:02.630Z,73.75
2022-08-20T01:05:35.267Z,73.93
2022-08-20T01:08:10.661Z,74.05
2022-08-20T01:10:59.602Z,73.85
2022-08-20T01:13:28.970Z,73.69
2022-08-20T01:16:06.152Z,73.45
2022-08-20T01:18:38.995Z,73.60
2022-08-20T01:21:11.489Z,73.72
2022-08-20T01:24:29.425Z,73.59
2022-08-20T01:27:06.258Z,73.87
2022-08-20T01:29:42.419Z,73.76
2022-08-20T01:32:16.600Z,73.77
2022-08-20T01:34:46.174Z,74.24
2022-08-20T01:37:15.509Z,74.72
2022-08-20T01:39:45.192Z,74.70
2022-08-20T01:42:59.357Z,74.67
2022-08-20T01:45:32.049Z,74.82
2022-08-20T01:48:09.738Z,74.80
2022-08-20T01:50:51.957Z,75.02
2022-08-20T01:53:46.144Z,75.17
2022-08-20T01:56:22.678Z,75.30
2022-08-20T01:58:58.924Z,75.50
2022-08-20T02:01:46.816Z,75.85
2022-08-20T02:04:18.457Z,76.06
2022-08-20T02:07:00.444Z,75.95
2022-08-20T02:09:34.571Z,76.01
2022-08-20T02:12:12.883Z,75.77
2022-08-20T02:14:54.925Z,76.09
2022-08-20T02:17:26.091Z,76.12
2022-08-20T02:20:06.495Z,76.09
2022-08-20T02:22:57.072Z,75.95
2022-08-20T02:25:32.948Z,75.65
2022-08-20T02:28:14.454Z,75.65
2022-08-20T02:30:51.783Z,75.82
2022-08-20T02:33:24.203Z,75.98
2022-08-20T02:35:55.843Z,75.88
2022-08-20T02:38:27.821Z,75.59
2022-08-20T02:40:57.493Z,75.71
2022-08-20T02:43:28.455Z,75.85
2022-08-20T02:46:02.852Z,75.88
2022-08-20T02:48:33.861Z,76.10
2022-08-20T02:51:07.206Z,76.15
2022-08-20T02:53:42.497Z,76.19
2022-08-20T02:56:12.537Z,75.88
2022-08-20T02:58:43.032Z,75.70
2022-08-20T03:01:21.235Z,75.72
2022-08-20T03:03:50.744Z,75.74
2022-08-20T03:06:23.367Z,76.02
2022-08-20T03:08:53.837Z,76.14
2022-08-20T03:11:23.352Z,76.21
2022-08-20T03:13:55.184Z,75.86
2022-08-20T03:16:26.990Z,76.02
2022-08-20T03:18:57.736Z,76.22
2022-08-20T03:21:27.144Z,76.13
2022-08-20T03:23:56.579Z,76.03
2022-08-20T03:26:27.794Z,75.93
2022-08-20T03:29:00.127Z,75.84
2022-08-20T03:31:30.014Z,75.93
2022-08-20T03:34:03.920Z,76.08
2022-08-20T03:36:33.287Z,76.18
2022-08-20T03:39:11.986Z,76.38
2022-08-20T03:41:42.520Z,76.40
2022-08-20T03:44:13.690Z,76.19
2022-08-20T03:46:45.621Z,75.99
2022-08-20T03:49:14.998Z,75.94
2022-08-20T03:51:57.820Z,76.12
2022-08-20T03:54:31.921Z,76.15
2022-08-20T03:57:13.993Z,76.45
2022-08-20T03:59:51.921Z,76.53
2022-08-20T04:02:29.621Z,76.74
2022-08-20T04:05:00.506Z,76.73
2022-08-20T04:07:30.928Z,76.67
2022-08-20T04:10:00.484Z,76.91
2022-08-20T04:12:29.836Z,77.06
2022-08-20T04:14:58.997Z,77.04
2022-08-20T04:17:29.305Z,77.25
2022-08-20T04:19:58.770Z,77.27
2022-08-20T04:22:28.045Z,76.98
2022-08-20T04:24:58.798Z,76.91
2022-08-20T04:27:33.324Z,76.76
2022-08-20T04:30:11.680Z,76.79
2022-08-20T04:32:42.414Z,76.77
2022-08-20T04:35:26.109Z,76.92
2022-08-20T04:38:09.348Z,76.94
2022-08-20T04:40:58.878Z,76.67
2022-08-20T04:43:34.886Z,76.52
2022-08-20T04:46:11.912Z,76.25
2022-08-20T04:48:49.194Z,76.09
2022-08-20T04:51:24.316Z,75.97
2022-08-20T04:53:56.608Z,75.76
2022-08-20T04:56:35.389Z,75.49
2022-08-20T04:59:12.328Z,75.40
2022-08-20T05:01:42.142Z,75.39
2022-08-20T05:04:12.569Z,75.27
2022-08-20T05:06:46.888Z,75.12
2022-08-20T05:09:16.212Z,74.95
2022-08-20T05:11:48.531Z,74.77
2022-08-20T05:14:22.636Z,74.61
2022-08-20T05:16:56.875Z,74.27
2022-08-20T05:19:29.276Z,73.97
2022-08-20T05:22:01.751Z,73.69
2022-08-20T05:24:33.744Z,73.57
2022-08-20T05:27:03.030Z,73.38
2022-08-20T05:29:32.414Z,73.56
2022-08-20T05:32:02.206Z,73.68
2022-08-20T05:34:31.591Z,73.78
2022-08-20T05:37:04.461Z,73.95
2022-08-20T05:39:37.665Z,73.83
2022-08-20T05:42:10.127Z,73.86
2022-08-20T05:44:39.745Z,73.93
2022-08-20T05:47:18.347Z,74.15
2022-08-20T05:50:10.375Z,74.16
2022-08-20T05:52:59.178Z,74.55
2022-08-20T05:55:35.158Z,74.73
2022-08-20T05:58:08.346Z,74.56
2022-08-20T06:00:45.105Z,74.53
2022-08-20T06:03:36.839Z,74.49
2022-08-20T06:06:20.671Z,74.72
2022-08-20T06:09:07.673Z,74.65
2022-08-20T06:11:37.554Z,74.61
2022-08-20T06:14:09.928Z,74.61
2022-08-20T06:16:39.492Z,75.02
2022-08-20T06:19:32.506Z,75.08
2022-08-20T06:22:18.422Z,74.77
2022-08-20T06:24:57.094Z,74.46
2022-08-20T06:27:28.527Z,74.39
2022-08-20T06:30:00.531Z,74.11
2022-08-20T06:32:35.749Z,73.80
2022-08-20T06:35:10.237Z,73.83
2022-08-20T06:37:40.823Z,73.89
2022-08-20T06:40:12.292Z,73.34
2022-08-20T06:42:49.043Z,73.09
2022-08-20T06:45:29.635Z,72.75
2022-08-20T06:48:05.550Z,72.29
2022-08-20T06:50:47.467Z,72.21
2022-08-20T06:53:23.120Z,72.04
2022-08-20T06:56:02.462Z,71.95
2022-08-20T06:58:38.644Z,72.18
2022-08-20T07:01:13.918Z,72.55
2022-08-20T07:03:55.331Z,71.89
2022-08-20T07:06:27.088Z,70.95
2022-08-20T07:08:58.765Z,68.90
2022-08-20T07:11:28.945Z,66.82
2022-08-20T07:13:58.973Z,66.08
2022-08-20T07:16:36.749Z,65.30
2022-08-20T07:19:06.677Z,65.42
2022-08-20T07:21:39.038Z,65.68
2022-08-20T07:24:12.755Z,65.38
2022-08-20T07:26:42.545Z,64.67
2022-08-20T07:29:11.924Z,63.36
2022-08-20T07:31:59.943Z,62.06
2022-08-20T07:34:36.174Z,60.51
2022-08-20T07:37:06.783Z,59.95
2022-08-20T07:39:36.500Z,59.85
2022-08-20T07:42:07.451Z,59.65
2022-08-20T07:44:39.138Z,58.96
2022-08-20T07:47:13.417Z,59.00
2022-08-20T07:49:42.601Z,59.14
2022-08-20T07:52:13.780Z,58.95
2022-08-20T07:54:45.175Z,58.54
2022-08-20T07:57:17.522Z,59.12
2022-08-20T07:59:54.302Z,59.42
2022-08-20T08:02:29.390Z,59.40
2022-08-20T08:04:59.551Z,59.74
2022-08-20T08:07:32.897Z,60.01
2022-08-20T08:10:07.281Z,59.89
2022-08-20T08:12:45.541Z,60.31
2022-08-20T08:15:22.713Z,60.02
2022-08-20T08:17:56.671Z,59.97
2022-08-20T08:20:26.298Z,60.38
2022-08-20T08:22:56.061Z,60.84
2022-08-20T08:25:28.400Z,61.04
2022-08-20T08:28:01.294Z,61.23
2022-08-20T08:30:34.255Z,61.32
2022-08-20T08:33:22.029Z,61.23
2022-08-20T08:35:51.669Z,61.21
2022-08-20T08:38:23.529Z,61.36
2022-08-20T08:40:59.757Z,60.79
2022-08-20T08:43:31.818Z,60.61
2022-08-20T08:46:06.475Z,60.05
2022-08-20T08:48:45.802Z,59.98
2022-08-20T08:51:28.776Z,58.89
2022-08-20T08:54:05.957Z,58.53
2022-08-20T08:56:36.650Z,58.51
2022-08-20T08:59:13.917Z,57.84
2022-08-20T09:01:56.895Z,57.88
2022-08-20T09:04:37.913Z,57.66
2022-08-20T09:07:15.114Z,57.01
2022-08-20T09:09:47.198Z,56.75
2022-08-20T09:12:20.535Z,57.18
2022-08-20T09:14:51.693Z,57.02
2022-08-20T09:17:24.911Z,56.18
2022-08-20T09:19:57.247Z,55.94
2022-08-20T09:22:26.485Z,56.32
2022-08-20T09:24:58.471Z,56.93
2022-08-20T09:27:27.829Z,56.81
2022-08-20T09:29:57.276Z,56.48
2022-08-20T09:32:26.460Z,56.76
2022-08-20T09:34:56.921Z,56.16
2022-08-20T09:37:33.660Z,55.60
2022-08-20T09:40:07.885Z,55.22
2022-08-20T09:42:41.591Z,53.91
2022-08-20T09:45:13.270Z,53.52
2022-08-20T09:47:56.608Z,53.42
2022-08-20T09:50:30.897Z,52.70
2022-08-20T09:53:02.319Z,52.44
2022-08-20T09:55:38.217Z,51.95
2022-08-20T09:58:41.661Z,50.72
2022-08-20T10:01:18.655Z,51.38
2022-08-20T10:03:49.833Z,51.52
2022-08-20T10:06:20.739Z,51.41
2022-08-20T10:08:50.769Z,51.71
2022-08-20T10:11:19.782Z,52.00
2022-08-20T10:13:49.828Z,51.95
2022-08-20T10:16:18.896Z,52.49
2022-08-20T10:18:49.561Z,52.44
2022-08-20T10:21:18.801Z,52.48
2022-08-20T10:23:48.114Z,53.00
2022-08-20T10:26:19.504Z,53.41
2022-08-20T10:28:48.514Z,53.65
2022-08-20T10:31:17.694Z,53.27
2022-08-20T10:33:49.512Z,53.64
2022-08-20T10:36:18.865Z,54.11
2022-08-20T10:38:49.220Z,54.15
2022-08-20T10:41:18.359Z,53.90
2022-08-20T10:43:47.536Z,53.68
2022-08-20T10:46:20.393Z,53.85
2022-08-20T10:48:49.605Z,53.90
2022-08-20T10:51:18.669Z,53.91
2022-08-20T10:53:48.306Z,53.96
2022-08-20T10:56:17.605Z,53.78
2022-08-20T10:58:46.653Z,53.05
2022-08-20T11:01:32.903Z,52.49
2022-08-20T11:04:03.534Z,52.96
2022-08-20T11:06:32.845Z,53.41
2022-08-20T11:09:05.450Z,52.82
2022-08-20T11:11:38.614Z,52.77
2022-08-20T11:14:07.882Z,52.83
2022-08-20T11:16:37.295Z,53.23
2022-08-20T11:19:08.784Z,53.25
2022-08-20T11:21:42.017Z,53.16
2022-08-20T11:24:13.671Z,53.14
2022-08-20T11:26:45.254Z,52.97
2022-08-20T11:29:17.642Z,52.58
2022-08-20T11:31:46.710Z,53.00
2022-08-20T11:34:15.648Z,53.07
2022-08-20T11:36:50.015Z,53.28
2022-08-20T11:39:25.311Z,52.85
2022-08-20T11:41:55.346Z,52.38
2022-08-20T11:44:25.100Z,52.77
2022-08-20T11:46:54.539Z,52.73
2022-08-20T11:49:26.111Z,53.23
2022-08-20T11:51:58.039Z,53.41
2022-08-20T11:54:32.008Z,53.65
2022-08-20T11:57:08.985Z,53.48
2022-08-20T11:59:40.508Z,53.15
2022-08-20T12:02:12.481Z,52.42
2022-08-20T12:04:42.095Z,52.38
2022-08-20T12:07:14.994Z,52.51
2022-08-20T12:09:50.281Z,52.65
2022-08-20T12:12:24.222Z,52.79
2022-08-20T12:14:56.554Z,52.96
2022-08-20T12:17:30.405Z,52.91
2022-08-20T12:20:04.105Z,53.13
2022-08-20T12:22:33.417Z,52.91
2022-08-20T12:25:02.615Z,52.57
2022-08-20T12:27:37.440Z,52.60
2022-08-20T12:30:21.690Z,52.60
2022-08-20T12:32:51.029Z,52.60
2022-08-20T12:35:21.282Z,52.76
2022-08-20T12:37:51.245Z,52.97
2022-08-20T12:40:31.829Z,53.45
2022-08-20T12:43:03.996Z,53.71
2022-08-20T12:45:34.013Z,53.20
2022-08-20T12:48:11.105Z,53.01
2022-08-20T12:50:45.952Z,52.83
2022-08-20T12:53:15.170Z,52.38
2022-08-20T12:55:44.473Z,52.78
2022-08-20T12:58:16.398Z,52.87
2022-08-20T13:00:51.027Z,52.54
2022-08-20T13:03:22.071Z,52.89
2022-08-20T13:05:51.241Z,52.84
2022-08-20T13:08:20.402Z,52.56
2022-08-20T13:10:49.384Z,52.44
2022-08-20T13:13:20.867Z,52.47
2022-08-20T13:15:52.512Z,51.98
2022-08-20T13:18:21.899Z,51.48
2022-08-20T13:20:50.972Z,51.95
2022-08-20T13:23:20.175Z,52.49
2022-08-20T13:25:53.360Z,52.50
2022-08-20T13:28:27.854Z,52.81
2022-08-20T13:31:33.092Z,52.64
2022-08-20T13:34:06.277Z,53.04
2022-08-20T13:36:36.369Z,53.00
2022-08-20T13:39:13.083Z,52.53
2022-08-20T13:41:44.539Z,52.67
2022-08-20T13:44:13.769Z,52.50
2022-08-20T13:46:42.847Z,52.44
2022-08-20T13:49:16.685Z,52.44
2022-08-20T13:51:52.236Z,52.58
2022-08-20T13:54:21.805Z,52.41
2022-08-20T13:56:50.954Z,52.59
2022-08-20T13:59:21.318Z,52.77
2022-08-20T14:01:50.363Z,52.95
2022-08-20T14:04:22.883Z,52.80
2022-08-20T14:06:55.040Z,52.89
2022-08-20T14:09:24.071Z,53.06
2022-08-20T14:11:53.063Z,53.14
2022-08-20T14:14:22.110Z,53.24
2022-08-20T14:16:51.115Z,53.25
2022-08-20T14:19:20.210Z,53.31
2022-08-20T14:21:49.229Z,53.34
2022-08-20T14:24:18.232Z,53.29
2022-08-20T14:26:47.293Z,52.94
2022-08-20T14:29:19.941Z,52.51
2022-08-20T14:31:48.959Z,52.04
2022-08-20T14:34:20.034Z,52.09
2022-08-20T14:36:48.967Z,52.45
2022-08-20T14:39:20.497Z,52.48
2022-08-20T14:41:49.715Z,52.73
2022-08-20T14:44:18.874Z,52.82
2022-08-20T14:46:47.784Z,52.78
2022-08-20T14:49:16.855Z,52.62
2022-08-20T14:51:45.752Z,52.55
2022-08-20T14:54:14.847Z,52.35
2022-08-20T14:56:43.890Z,52.18
2022-08-20T14:59:12.756Z,52.42
2022-08-20T15:01:41.701Z,52.39
2022-08-20T15:04:10.573Z,51.98
2022-08-20T15:06:39.597Z,51.69
2022-08-20T15:09:08.825Z,51.40
2022-08-20T15:11:40.155Z,51.18
2022-08-20T15:14:09.099Z,51.13
2022-08-20T15:16:39.495Z,51.05
2022-08-20T15:19:08.757Z,51.13
2022-08-20T15:21:45.471Z,51.36
2022-08-20T15:24:19.416Z,51.35
2022-08-20T15:26:48.969Z,51.42
2022-08-20T15:29:23.267Z,51.43
2022-08-20T15:31:54.239Z,51.75
2022-08-20T15:34:23.316Z,51.79
2022-08-20T15:36:52.282Z,51.83
2022-08-20T15:39:25.914Z,51.93
2022-08-20T15:41:55.531Z,52.21
2022-08-20T15:44:24.803Z,52.22
2022-08-20T15:46:53.952Z,52.14
2022-08-20T15:49:24.661Z,52.23
2022-08-20T15:51:58.368Z,52.40
2022-08-20T15:54:32.463Z,52.52
2022-08-20T15:57:33.788Z,52.86
2022-08-20T16:00:14.487Z,52.90
2022-08-20T16:03:08.451Z,52.86
2022-08-20T16:06:03.476Z,52.91
2022-08-20T16:09:03.929Z,53.29
2022-08-20T16:11:42.907Z,53.39
2022-08-20T16:14:25.397Z,53.53
2022-08-20T16:17:05.834Z,53.63
2022-08-20T16:20:07.611Z,53.64
2022-08-20T16:22:46.230Z,53.96
2022-08-20T16:25:17.364Z,54.15
2022-08-20T16:28:23.294Z,53.96
2022-08-20T16:31:05.727Z,54.01
2022-08-20T16:34:33.173Z,54.00
2022-08-20T16:37:11.007Z,53.86
2022-08-20T16:39:55.484Z,53.74
2022-08-20T16:42:30.206Z,53.52
2022-08-20T16:45:00.658Z,53.43
2022-08-20T16:47:35.990Z,53.29
2022-08-20T16:50:23.751Z,53.23
2022-08-20T16:52:53.383Z,53.16
2022-08-20T16:55:24.689Z,53.22
2022-08-20T16:57:54.192Z,53.56
2022-08-20T17:00:39.055Z,53.68
2022-08-20T17:03:33.312Z,54.01
2022-08-20T17:06:46.845Z,54.72
2022-08-20T17:09:34.087Z,55.17
2022-08-20T17:12:27.839Z,56.07
2022-08-20T17:14:59.160Z,56.71
2022-08-20T17:17:37.509Z,57.33
2022-08-20T17:20:20.203Z,57.80
2022-08-20T17:23:09.671Z,58.31
2022-08-20T17:25:38.781Z,58.77
2022-08-20T17:28:20.346Z,58.47
2022-08-20T17:30:50.645Z,58.13
2022-08-20T17:33:21.141Z,58.63
2022-08-20T17:36:08.727Z,58.69
2022-08-20T17:38:48.888Z,58.55
2022-08-20T17:41:26.956Z,58.65
2022-08-20T17:44:20.269Z,58.98
2022-08-20T17:46:51.903Z,59.48
2022-08-20T17:49:42.332Z,59.78
2022-08-20T17:52:27.259Z,60.03
2022-08-20T17:54:57.141Z,60.38
2022-08-20T17:57:33.409Z,60.53
2022-08-20T18:00:08.669Z,60.55
2022-08-20T18:02:38.916Z,60.77
2022-08-20T18:05:21.222Z,60.65
2022-08-20T18:08:25.763Z,60.46
2022-08-20T18:11:09.177Z,60.43
2022-08-20T18:14:05.589Z,60.61
2022-08-20T18:17:09.117Z,60.80
2022-08-20T18:20:15.005Z,60.82
2022-08-20T18:23:11.734Z,61.00
2022-08-20T18:26:13.527Z,61.16
2022-08-20T18:29:16.388Z,61.56
2022-08-20T18:31:55.201Z,61.83
2022-08-20T18:34:29.904Z,62.14
2022-08-20T18:37:05.775Z,62.82
2022-08-20T18:39:42.234Z,63.47
2022-08-20T18:42:36.177Z,64.01
2022-08-20T18:45:09.600Z,65.08
2022-08-20T18:47:41.318Z,65.66
2022-08-20T18:50:16.417Z,65.96
2022-08-20T18:53:17.078Z,66.17
2022-08-20T18:56:06.033Z,66.40
2022-08-20T18:59:20.063Z,66.50
2022-08-20T19:01:50.006Z,66.50
2022-08-20T19:04:34.715Z,66.63
2022-08-20T19:07:06.665Z,66.82
2022-08-20T19:09:44.507Z,66.70
2022-08-20T19:13:03.809Z,66.70
2022-08-20T19:15:38.498Z,66.82
2022-08-20T19:18:16.611Z,66.75
2022-08-20T19:20:59.590Z,66.85
2022-08-20T19:23:33.452Z,67.05
2022-08-20T19:26:25.035Z,66.99
2022-08-20T19:29:11.361Z,67.10
2022-08-20T19:31:41.885Z,67.19
2022-08-20T19:34:22.160Z,67.15
2022-08-20T19:37:27.624Z,67.10
2022-08-20T19:39:56.606Z,67.46
2022-08-20T19:42:33.530Z,67.32
2022-08-20T19:45:06.040Z,67.01
2022-08-20T19:47:46.378Z,67.34
2022-08-20T19:50:56.821Z,67.23
2022-08-20T19:53:32.922Z,67.23
2022-08-20T19:56:12.205Z,67.25
2022-08-20T19:58:42.117Z,67.57
2022-08-20T20:01:23.416Z,67.78
2022-08-20T20:04:06.358Z,67.84
2022-08-20T20:06:43.623Z,67.70
2022-08-20T20:09:23.726Z,67.58
2022-08-20T20:12:03.206Z,67.77
2022-08-20T20:14:37.543Z,67.63
2022-08-20T20:17:09.275Z,67.77
2022-08-20T20:19:49.836Z,67.95
2022-08-20T20:22:36.079Z,68.21
2022-08-20T20:25:21.007Z,68.23
2022-08-20T20:27:57.008Z,68.38
2022-08-20T20:30:37.376Z,68.37
2022-08-20T20:33:32.548Z,68.61
2022-08-20T20:36:18.500Z,68.86
2022-08-20T20:39:04.752Z,68.87
2022-08-20T20:41:38.097Z,68.77
2022-08-20T20:44:22.969Z,68.95
2022-08-20T20:47:05.075Z,69.07
2022-08-20T20:50:05.779Z,69.40
2022-08-20T20:52:48.640Z,69.56
2022-08-20T20:55:17.722Z,69.53
2022-08-20T20:57:47.275Z,69.68
2022-08-20T21:00:19.141Z,69.84
2022-08-20T21:02:48.565Z,69.88
2022-08-20T21:05:25.964Z,70.12
2022-08-20T21:08:02.535Z,70.38
2022-08-20T21:10:36.646Z,70.46
2022-08-20T21:13:08.614Z,70.42
2022-08-20T21:15:39.994Z,70.49
2022-08-20T21:18:09.542Z,70.59
2022-08-20T21:20:38.715Z,70.82
2022-08-20T21:23:08.218Z,71.10
2022-08-20T21:25:37.662Z,71.38
2022-08-20T21:28:08.191Z,71.21
2022-08-20T21:30:37.486Z,71.14
2022-08-20T21:33:06.785Z,71.22
2022-08-20T21:35:36.105Z,71.42
2022-08-20T21:38:05.403Z,71.41
2022-08-20T21:40:35.173Z,71.37
2022-08-20T21:43:07.485Z,71.60
2022-08-20T21:45:40.339Z,71.80
2022-08-20T21:48:12.657Z,71.83
2022-08-20T21:50:42.423Z,71.89
2022-08-20T21:53:12.784Z,71.73
2022-08-20T21:55:42.234Z,71.73
2022-08-20T21:58:12.397Z,71.89
2022-08-20T22:00:57.458Z,71.90
2022-08-20T22:03:38.872Z,72.04
2022-08-20T22:06:13.653Z,71.84
2022-08-20T22:08:42.832Z,71.94
2022-08-20T22:11:13.716Z,72.10
2022-08-20T22:13:44.854Z,72.15
2022-08-20T22:16:18.946Z,72.48
2022-08-20T22:18:50.372Z,72.67
2022-08-20T22:21:31.397Z,72.93
2022-08-20T22:24:05.382Z,72.95
2022-08-20T22:26:38.150Z,73.07
2022-08-20T22:29:11.277Z,73.08
2022-08-20T22:31:43.735Z,72.94
2022-08-20T22:34:20.135Z,73.10
2022-08-20T22:36:59.685Z,73.21
2022-08-20T22:39:28.947Z,73.55
2022-08-20T22:42:01.461Z,73.62
2022-08-20T22:44:30.815Z,73.71
2022-08-20T22:47:05.989Z,73.80
2022-08-20T22:49:44.573Z,73.85
2022-08-20T22:52:16.358Z,73.98
2022-08-20T22:54:46.078Z,73.94
2022-08-20T22:57:15.774Z,74.04
2022-08-20T22:59:53.220Z,74.19
2022-08-20T23:02:24.354Z,74.46
2022-08-20T23:04:53.950Z,74.67
2022-08-20T23:07:26.066Z,74.89
2022-08-20T23:09:55.573Z,74.74
2022-08-20T23:12:24.989Z,75.14
2022-08-20T23:14:55.235Z,75.28
2022-08-20T23:17:24.743Z,75.57
2022-08-20T23:19:54.654Z,75.77
2022-08-20T23:22:24.820Z,75.68
2022-08-20T23:24:57.347Z,75.79
2022-08-20T23:27:29.824Z,76.02
2022-08-20T23:30:00.032Z,76.27
2022-08-20T23:32:30.160Z,76.42
2022-08-20T23:35:00.249Z,76.28
2022-08-20T23:37:29.661Z,76.41
2022-08-20T23:39:58.761Z,76.51
2022-08-20T23:42:31.426Z,76.39
2022-08-20T23:45:05.711Z,76.45
2022-08-20T23:47:36.560Z,76.47
2022-08-20T23:50:11.697Z,76.72
2022-08-20T23:52:41.674Z,76.89
2022-08-20T23:55:12.293Z,77.05
2022-08-20T23:57:44.773Z,77.06
